Terminal Aerodrome Forecast
Issued by NWS Louisville, KY

Home | Current Version | Previous Version | Text Only | Print | Product List | Glossary On
Versions: 1 2 3 4 5 6 7 8 9 10 11 12 13 14 15 16 17 18 19 20 21 22 23 24 25 26
000
FTUS43 KLMK 160700 AAA
TAFSDF
TAF AMD
KSDF 160704Z 1607/1712 18009KT P6SM -SHRA VCTS BKN015CB
      WS018/21037KT
      TEMPO 1607/1609 SCT015 BKN035CB
     FM160900 24012G20KT P6SM VCSH BKN015
     FM161200 25012G22KT P6SM VCSH BKN015
     FM170100 27010KT P6SM BKN015=

USA.gov is the U.S. government's official web portal to all federal, state and local government web resources and services.